Time;durP1;ratioP1;P1;durP2;ratioP2;P2;SDS_P1;SDS_P2;PMS_P1;PMS_P2;Temp;Humidity;BMP_temperature;BMP_pressure;BME280_temperature;BME280_humidity;BME280_pressure;Samples;Min_cycle;Max_cycle;Signal;HPM_P1;HPM_P2
2022/01/12 00:01:13;;;;;;;12.47;7.67;;;7.80;63.80;;;11.03;48.96;103340.53;5073337;28;20212;-55
2022/01/12 00:03:41;;;;;;;12.17;8.07;;;7.80;63.50;;;11.09;48.20;103343.53;5073328;28;20220;-58
2022/01/12 00:06:08;;;;;;;12.83;8.50;;;7.90;63.30;;;11.15;48.53;103344.91;5073789;28;20205;-57
2022/01/12 00:08:36;;;;;;;12.33;7.97;;;7.90;63.20;;;11.17;48.17;103353.53;5073548;28;20272;-58
2022/01/12 00:11:05;;;;;;;10.40;7.97;;;7.90;62.90;;;11.18;48.29;103347.28;5073239;28;20197;-55
2022/01/12 00:13:34;;;;;;;10.83;8.97;;;7.90;62.90;;;11.16;47.72;103355.31;5073107;28;20240;-56
2022/01/12 00:16:03;;;;;;;12.77;8.50;;;7.90;62.70;;;11.13;48.05;103354.69;5073367;28;20225;-58
2022/01/12 00:18:33;;;;;;;14.97;9.13;;;7.90;62.30;;;11.06;47.59;103348.19;5073521;28;20696;-59
2022/01/12 00:21:02;;;;;;;11.87;8.33;;;7.90;62.30;;;11.01;48.07;103350.31;5073604;28;20271;-60
2022/01/12 00:23:29;;;;;;;14.07;8.97;;;7.90;62.40;;;10.97;48.19;103357.63;5072769;28;20684;-59
2022/01/12 00:34:01;;;;;;;12.80;8.77;;;7.90;62.50;;;10.99;47.77;103368.03;5072894;28;20209;-60
2022/01/12 00:36:30;;;;;;;14.30;8.80;;;7.90;62.70;;;10.98;47.80;103359.31;5073388;28;20185;-60
2022/01/12 00:38:59;;;;;;;10.00;7.90;;;7.90;62.90;;;11.00;48.23;103364.47;5073020;28;20201;-59
2022/01/12 00:41:27;;;;;;;10.83;7.83;;;7.90;62.90;;;10.99;47.74;103373.31;5072884;28;20213;-58
2022/01/12 00:43:59;;;;;;;13.10;9.27;;;7.90;62.90;;;10.99;48.42;103373.31;5072348;28;20219;-59
2022/01/12 00:46:29;;;;;;;12.77;8.73;;;7.90;62.70;;;10.98;47.75;103371.66;5073513;28;20189;-60
2022/01/12 00:49:00;;;;;;;12.20;8.37;;;7.90;62.90;;;10.96;48.38;103373.56;5073012;28;20190;-59
2022/01/12 00:51:32;;;;;;;13.17;8.70;;;7.90;63.10;;;10.95;48.16;103377.13;5073589;28;20177;-60
2022/01/12 00:54:01;;;;;;;16.43;10.40;;;7.80;63.30;;;10.95;48.41;103382.41;5077144;28;20293;-57
2022/01/12 00:56:29;;;;;;;14.03;9.77;;;7.80;64.00;;;10.93;48.49;103381.66;5076917;28;20184;-57
2022/01/12 00:58:56;;;;;;;13.70;9.23;;;7.80;64.90;;;10.88;49.29;103382.84;5077289;28;20190;-60
2022/01/12 01:01:25;;;;;;;14.70;9.53;;;7.80;65.20;;;10.87;49.08;103396.97;5076191;28;20221;-58
2022/01/12 01:03:53;;;;;;;11.57;8.70;;;7.70;65.70;;;10.85;49.20;103396.25;5076465;28;20733;-59
2022/01/12 01:06:24;;;;;;;11.83;9.50;;;7.70;65.90;;;10.83;49.33;103395.50;5076865;28;20192;-56
2022/01/12 01:08:52;;;;;;;11.93;9.50;;;7.60;66.80;;;10.81;49.63;103392.16;5077484;28;20193;-59
2022/01/12 01:11:20;;;;;;;13.20;9.90;;;7.60;66.80;;;10.81;50.18;103401.84;5077063;28;20546;-58
2022/01/12 01:14:02;;;;;;;13.00;9.13;;;7.60;67.40;;;10.79;50.36;103401.94;5076524;28;20220;-57
2022/01/12 01:27:31;;;;;;;14.57;10.93;;;7.50;68.70;;;10.59;51.19;103404.31;5057471;28;20190;-60
2022/01/12 01:29:58;;;;;;;15.47;10.80;;;7.50;68.80;;;10.58;52.14;103398.19;5056391;28;20654;-59
2022/01/12 01:32:27;;;;;;;15.00;10.40;;;7.40;69.40;;;10.55;51.53;103401.06;5056596;28;20190;-58
2022/01/12 01:34:54;;;;;;;15.13;10.87;;;7.30;69.90;;;10.51;51.95;103399.59;5071432;28;20214;-58
2022/01/12 01:37:23;;;;;;;14.03;10.73;;;7.30;70.00;;;10.49;52.36;103406.75;5076477;28;20215;-60
2022/01/12 01:39:50;;;;;;;13.27;10.90;;;7.30;70.00;;;10.43;52.31;103396.69;5076183;28;20217;-56
2022/01/12 01:42:19;;;;;;;12.77;9.50;;;7.30;70.00;;;10.36;52.95;103398.06;5076182;28;20268;-59
2022/01/12 01:55:34;;;;;;;15.93;10.90;;;7.20;71.50;;;10.18;54.81;103388.78;5076212;28;20264;-58
2022/01/12 01:58:01;;;;;;;15.80;10.00;;;7.30;72.00;;;10.19;54.13;103403.66;5076187;28;20194;-59
2022/01/12 02:00:31;;;;;;;14.27;11.53;;;7.20;71.80;;;10.24;53.84;103401.53;5075586;28;20220;-59
2022/01/12 02:03:00;;;;;;;13.67;10.23;;;7.20;72.00;;;10.27;54.41;103401.31;5075055;28;20224;-57
2022/01/12 02:05:28;;;;;;;13.50;10.30;;;7.20;72.00;;;10.33;53.97;103405.31;5076229;28;20195;-58
2022/01/12 02:07:57;;;;;;;15.80;12.00;;;7.20;72.40;;;10.33;53.73;103395.63;5075050;28;20644;-57
2022/01/12 02:10:25;;;;;;;22.37;12.50;;;7.20;72.60;;;10.34;53.76;103402.56;5075715;28;20537;-58
2022/01/12 02:12:52;;;;;;;15.77;11.63;;;7.20;72.90;;;10.35;54.24;103414.78;5090962;28;20192;-60
2022/01/12 02:15:22;;;;;;;18.30;11.97;;;7.20;73.30;;;10.35;53.90;103429.72;5075733;28;20559;-59
2022/01/12 02:40:30;;;;;;;19.03;12.00;;;7.20;73.70;;;10.33;55.30;103434.25;5074858;28;20292;-57
2022/01/12 02:53:44;;;;;;;19.53;13.63;;;7.20;74.20;;;10.35;55.16;103456.91;5074404;28;20212;-58
2022/01/12 02:56:16;;;;;;;17.93;11.90;;;7.10;74.20;;;10.34;55.06;103457.84;5074436;28;20272;-60
2022/01/12 02:58:46;;;;;;;19.90;12.20;;;7.10;74.10;;;10.36;55.29;103463.88;5075378;28;20276;-58
2022/01/12 03:04:04;;;;;;;23.10;14.10;;;7.20;74.30;;;10.35;55.67;103472.69;5074304;28;20566;-59
2022/01/12 03:06:37;;;;;;;22.27;13.83;;;7.20;74.40;;;10.35;55.29;103480.59;5073409;28;20538;-60
2022/01/12 03:09:09;;;;;;;19.57;12.70;;;7.20;74.30;;;10.33;55.83;103469.34;5074641;28;20603;-58
2022/01/12 03:11:37;;;;;;;23.67;12.83;;;7.20;74.40;;;10.32;55.55;103467.63;5074259;28;20268;-59
2022/01/12 03:14:05;;;;;;;22.00;13.03;;;7.20;74.40;;;10.32;55.64;103467.63;5073716;28;20217;-59
2022/01/12 03:16:33;;;;;;;24.73;14.67;;;7.20;74.50;;;10.33;55.74;103466.69;5074177;28;20243;-58
2022/01/12 03:19:03;;;;;;;20.93;13.57;;;7.20;74.70;;;10.35;55.65;103467.44;5074563;28;20185;-60
2022/01/12 03:21:33;;;;;;;20.73;14.13;;;7.20;74.90;;;10.37;55.82;103476.06;5074178;28;20259;-56
2022/01/12 03:24:01;;;;;;;21.90;13.87;;;7.20;75.00;;;10.37;56.02;103468.16;5073959;28;20296;-60
2022/01/12 03:26:33;;;;;;;24.10;15.40;;;7.20;75.00;;;10.36;56.16;103463.88;5074592;28;20219;-60
2022/01/12 03:29:01;;;;;;;26.20;14.67;;;7.20;75.30;;;10.36;56.24;103458.59;5074642;28;20197;-60
2022/01/12 03:31:33;;;;;;;26.43;16.27;;;7.20;75.40;;;10.36;56.30;103457.75;5074547;28;20618;-60
2022/01/12 03:34:08;;;;;;;31.43;18.10;;;7.20;75.80;;;10.34;55.94;103457.84;5073772;28;20213;-59
2022/01/12 03:39:22;;;;;;;27.73;17.13;;;7.20;75.80;;;10.25;57.15;103449.72;5012870;28;20282;-59
2022/01/12 03:41:51;;;;;;;28.27;16.70;;;7.20;76.20;;;10.19;56.58;103448.38;5012373;28;20231;-58
2022/01/12 03:44:18;;;;;;;26.63;16.67;;;7.20;76.40;;;10.20;57.04;103447.41;5012005;28;20219;-59
2022/01/12 03:46:50;;;;;;;32.93;18.47;;;7.10;76.70;;;10.19;57.58;103445.75;5012395;28;20231;-60
2022/01/12 03:49:20;;;;;;;26.17;16.97;;;7.10;77.30;;;10.18;56.98;103446.69;5012449;28;20202;-59
2022/01/12 03:51:48;;;;;;;23.47;16.13;;;7.00;77.30;;;10.16;57.12;103451.22;5012004;28;20211;-58
2022/01/12 03:54:17;;;;;;;27.03;16.50;;;7.00;77.40;;;10.16;57.02;103438.91;5011792;28;20631;-58
2022/01/12 03:56:45;;;;;;;26.57;17.40;;;7.00;77.40;;;10.17;57.28;103452.91;5012293;28;20209;-58
2022/01/12 03:59:13;;;;;;;25.03;16.43;;;7.00;77.60;;;10.18;57.38;103454.59;5012196;28;20195;-59
2022/01/12 04:01:41;;;;;;;24.87;16.73;;;7.10;77.80;;;10.19;57.77;103456.28;5011850;28;20230;-60
2022/01/12 04:04:17;;;;;;;29.27;17.73;;;7.00;77.70;;;10.19;57.49;103461.53;5011073;28;20219;-58
2022/01/12 04:09:47;;;;;;;22.43;14.77;;;7.10;77.80;;;10.18;58.06;103458.06;5011661;28;20221;-59
2022/01/12 04:12:16;;;;;;;25.30;16.07;;;7.10;77.90;;;10.20;57.74;103448.25;5011699;28;20210;-60
2022/01/12 04:14:45;;;;;;;24.13;15.93;;;7.10;77.80;;;10.22;58.29;103450.81;5011860;28;20219;-59
2022/01/12 04:17:12;;;;;;;25.53;15.33;;;7.10;77.80;;;10.24;57.73;103454.19;5060949;28;20611;-57
2022/01/12 04:19:39;;;;;;;23.90;15.60;;;7.10;77.70;;;10.25;58.19;103466.38;5073421;28;20251;-55
2022/01/12 04:23:16;;;;;;;30.53;17.00;;;7.20;77.80;;;10.28;58.00;103467.94;5073563;28;20665;-58
2022/01/12 04:24:56;;;;;;;24.03;15.60;;;7.10;77.70;;;10.30;57.89;103461.63;5072770;28;20217;-58
2022/01/12 04:27:24;;;;;;;24.33;16.30;;;7.20;78.00;;;10.33;58.04;103456.16;5073092;28;20220;-59
2022/01/12 04:29:52;;;;;;;27.97;17.00;;;7.20;78.20;;;10.36;57.64;103455.97;5073496;28;20193;-55
2022/01/12 04:32:21;;;;;;;23.27;15.27;;;7.20;78.30;;;10.37;57.58;103449.72;5073572;28;20273;-60
2022/01/12 04:34:48;;;;;;;26.10;16.10;;;7.20;78.10;;;10.37;58.26;103441.84;5073388;28;20291;-57
2022/01/12 04:37:16;;;;;;;22.73;14.17;;;7.20;78.00;;;10.36;57.69;103449.84;5072938;28;20197;-56
2022/01/12 04:39:43;;;;;;;23.17;14.90;;;7.20;77.90;;;10.36;58.39;103442.81;5073136;28;20660;-57
2022/01/12 04:42:11;;;;;;;23.60;15.00;;;7.20;78.00;;;10.37;57.84;103455.00;5072593;28;20260;-59
2022/01/12 04:44:44;;;;;;;21.53;14.87;;;7.20;77.80;;;10.39;58.16;103444.38;5072579;28;20220;-58
2022/01/12 04:47:28;;;;;;;22.57;14.37;;;7.30;78.00;;;10.42;57.56;103455.53;5072181;28;20648;-61
2022/01/12 04:49:56;;;;;;;23.27;15.20;;;7.30;78.00;;;10.42;57.86;103452.03;5073586;28;20548;-58
2022/01/12 04:52:24;;;;;;;24.53;15.43;;;7.30;78.00;;;10.42;57.83;103452.03;5073201;28;20188;-53
2022/01/12 04:54:51;;;;;;;23.13;15.53;;;7.20;77.90;;;10.38;57.56;103448.81;5072707;28;20292;-55
2022/01/12 04:57:19;;;;;;;22.47;14.97;;;7.20;77.80;;;10.36;57.87;103457.75;5072478;28;20283;-53
2022/01/12 05:00:03;;;;;;;20.03;14.33;;;7.20;77.80;;;10.32;57.96;103472.91;5073306;28;20657;-58
2022/01/12 05:13:33;;;;;;;23.63;13.93;;;7.20;78.00;;;10.33;58.00;103471.97;5071798;28;20213;-60
2022/01/12 05:16:01;;;;;;;17.83;12.50;;;7.30;78.20;;;10.36;58.24;103474.41;5072811;28;20197;-59
2022/01/12 05:18:32;;;;;;;21.47;13.43;;;7.30;78.20;;;10.38;57.83;103476.91;5073038;28;20186;-59
2022/01/12 05:21:00;;;;;;;20.07;13.43;;;7.20;78.10;;;10.38;58.00;103477.75;5072541;28;20217;-59
2022/01/12 05:23:28;;;;;;;19.23;13.90;;;7.30;78.10;;;10.40;58.34;103478.50;5072538;28;20296;-56
2022/01/12 05:25:55;;;;;;;19.93;13.23;;;7.30;78.10;;;10.41;57.70;103477.53;5072443;28;20642;-57
2022/01/12 05:28:25;;;;;;;20.10;14.10;;;7.20;78.20;;;10.43;57.63;103470.41;5072320;28;20189;-57
2022/01/12 05:30:55;;;;;;;19.53;12.50;;;7.30;78.30;;;10.44;57.93;103472.06;5071782;28;20198;-59
2022/01/12 05:33:25;;;;;;;25.13;14.90;;;7.20;78.10;;;10.45;57.76;103483.44;5072014;28;20228;-60
2022/01/12 05:35:56;;;;;;;24.30;15.43;;;7.30;78.20;;;10.42;57.86;103483.63;5072715;28;20178;-56
2022/01/12 05:38:25;;;;;;;23.47;14.07;;;7.30;78.20;;;10.36;57.95;103469.13;5072633;28;20189;-56
2022/01/12 05:40:56;;;;;;;18.83;12.53;;;7.30;78.00;;;10.34;58.35;103480.72;5075700;28;20185;-60
2022/01/12 05:43:26;;;;;;;24.00;14.67;;;7.30;78.00;;;10.34;58.17;103480.72;5075156;28;20665;-60
2022/01/12 05:45:56;;;;;;;25.87;16.07;;;7.30;78.20;;;10.37;58.43;103486.59;5075327;28;20264;-60
2022/01/12 05:51:11;;;;;;;20.93;13.90;;;7.30;78.30;;;10.40;58.13;103490.81;5075571;28;20189;-59
2022/01/12 05:53:39;;;;;;;22.73;13.80;;;7.30;78.40;;;10.41;58.15;103488.06;5075292;28;20744;-58
2022/01/12 05:56:06;;;;;;;19.77;13.87;;;7.30;78.30;;;10.44;58.40;103498.38;5076240;28;20194;-59
2022/01/12 05:58:33;;;;;;;27.03;15.80;;;7.30;78.40;;;10.44;58.12;103501.03;5075807;28;20228;-57
2022/01/12 06:01:01;;;;;;;22.70;13.47;;;7.30;78.20;;;10.45;57.95;103509.78;5075087;28;20215;-58
2022/01/12 06:03:28;;;;;;;25.77;15.27;;;7.40;78.30;;;10.45;58.74;103504.50;5073846;28;20221;-58
2022/01/12 06:05:55;;;;;;;22.23;14.70;;;7.30;78.20;;;10.45;58.09;103500.09;5074934;28;20181;-57
2022/01/12 06:08:24;;;;;;;17.27;13.33;;;7.30;78.30;;;10.48;57.94;103493.78;5075144;28;20189;-57
2022/01/12 06:10:52;;;;;;;24.70;14.73;;;7.40;78.50;;;10.52;58.21;103501.34;5075248;28;20638;-58
2022/01/12 06:13:19;;;;;;;23.80;13.83;;;7.40;78.70;;;10.55;58.13;103495.88;5075049;28;20220;-60
2022/01/12 06:15:46;;;;;;;23.37;15.23;;;7.40;78.60;;;10.56;58.06;103502.81;5075554;28;20299;-58
2022/01/12 06:18:14;;;;;;;22.70;15.10;;;7.40;78.50;;;10.57;57.99;103503.66;5075035;28;20299;-57
2022/01/12 06:20:41;;;;;;;20.50;14.00;;;7.40;78.50;;;10.54;58.42;103504.72;5074959;28;20185;-58
2022/01/12 06:23:08;;;;;;;26.07;15.77;;;7.40;78.50;;;10.53;57.73;103508.28;5074311;28;20216;-59
2022/01/12 06:25:37;;;;;;;25.40;16.43;;;7.40;78.40;;;10.50;58.10;103512.94;5075347;28;20193;-58
2022/01/12 06:33:38;;;;;;;20.80;14.67;;;7.40;78.20;;;10.38;58.77;103514.63;5073754;28;20216;-60
2022/01/12 06:36:07;;;;;;;22.53;15.63;;;7.40;78.30;;;10.38;58.26;103526.94;5074099;28;20192;-61
2022/01/12 06:38:34;;;;;;;22.47;14.30;;;7.30;78.30;;;10.38;58.23;103522.50;5074919;28;20189;-59
2022/01/12 06:41:04;;;;;;;22.17;14.90;;;7.30;78.40;;;10.37;58.63;103528.72;5073979;28;20709;-57
2022/01/12 06:43:32;;;;;;;23.27;14.97;;;7.30;78.30;;;10.38;58.53;103529.56;5073948;28;20217;-61
2022/01/12 06:46:00;;;;;;;23.93;15.57;;;7.30;78.40;;;10.41;58.20;103540.72;5074298;28;20229;-57
2022/01/12 06:48:27;;;;;;;29.63;17.43;;;7.30;78.60;;;10.47;58.86;103539.47;5073994;28;20329;-60
2022/01/12 06:50:54;;;;;;;25.60;15.80;;;7.30;78.80;;;10.49;58.56;103554.22;5073243;28;20259;-59
2022/01/12 06:53:22;;;;;;;21.93;14.30;;;7.30;78.90;;;10.52;58.44;103556.66;5073409;28;20213;-59
2022/01/12 06:55:49;;;;;;;27.37;16.20;;;7.30;78.90;;;10.56;58.56;103557.25;5073792;28;20185;-60
2022/01/12 06:58:18;;;;;;;23.10;16.47;;;7.30;79.00;;;10.59;57.88;103560.53;5073864;28;20208;-57
2022/01/12 07:00:45;;;;;;;23.87;16.37;;;7.30;79.10;;;10.63;58.11;103555.88;5073824;28;20203;-56
2022/01/12 07:03:13;;;;;;;23.77;15.73;;;7.30;79.00;;;10.65;58.60;103551.38;5073357;28;20221;-58
2022/01/12 07:05:41;;;;;;;25.23;15.43;;;7.40;79.20;;;10.70;58.60;103557.16;5074051;28;20185;-59
2022/01/12 07:08:08;;;;;;;26.83;16.37;;;7.40;79.30;;;10.73;58.33;103563.06;5073432;28;20196;-60
2022/01/12 07:10:35;;;;;;;25.43;16.13;;;7.40;79.20;;;10.76;57.44;103573.41;5073057;28;20193;-59
2022/01/12 07:13:03;;;;;;;27.77;16.27;;;7.50;79.00;;;10.78;58.24;103586.47;5075447;28;20284;-59
2022/01/12 07:15:31;;;;;;;22.40;15.73;;;7.50;78.90;;;10.81;58.39;103586.25;5073730;28;20190;-58
2022/01/12 07:18:03;;;;;;;25.43;15.70;;;7.50;79.20;;;10.83;58.03;103589.63;5073905;28;20669;-60
2022/01/12 07:20:30;;;;;;;21.57;15.53;;;7.60;79.10;;;10.85;58.24;103588.56;5073412;28;20189;-60
2022/01/12 07:22:58;;;;;;;24.67;16.47;;;7.60;78.70;;;10.84;57.64;103589.50;5073104;28;20326;-60
2022/01/12 07:25:25;;;;;;;27.13;17.00;;;7.60;78.60;;;10.83;58.14;103603.66;5073370;28;20189;-56
2022/01/12 07:27:53;;;;;;;33.73;20.30;;;7.60;78.50;;;10.86;57.95;103606.03;5073353;28;20185;-59
2022/01/12 07:30:22;;;;;;;30.17;17.30;;;7.60;78.60;;;10.88;57.75;103606.81;5073443;28;20196;-58
2022/01/12 07:32:52;;;;;;;25.80;17.53;;;7.60;78.70;;;10.92;57.52;103590.78;5072454;28;20236;-58
2022/01/12 07:35:19;;;;;;;27.57;16.97;;;7.60;78.60;;;10.96;58.05;103594.91;5072821;28;20645;-58
2022/01/12 07:37:48;;;;;;;25.73;17.10;;;7.60;78.70;;;10.98;57.67;103603.53;5072981;28;20196;-61
2022/01/12 07:40:15;;;;;;;29.23;17.67;;;7.70;78.60;;;11.01;57.38;103613.84;5072404;28;20185;-59
2022/01/12 07:42:45;;;;;;;23.93;17.20;;;7.70;78.40;;;11.05;58.28;103612.69;5071949;28;20291;-60
2022/01/12 07:45:13;;;;;;;27.13;17.27;;;7.70;78.90;;;11.11;58.33;103618.38;5073460;28;20189;-58
2022/01/12 07:47:40;;;;;;;28.30;17.20;;;7.80;79.20;;;11.19;58.22;103636.31;5072605;28;20203;-60
2022/01/12 07:50:10;;;;;;;29.53;18.37;;;7.80;78.70;;;11.22;57.53;103634.28;5072577;28;20672;-60
2022/01/12 07:52:38;;;;;;;27.87;17.90;;;7.90;78.40;;;11.25;57.52;103634.06;5071800;28;20276;-60
2022/01/12 07:55:07;;;;;;;29.57;18.00;;;7.90;78.30;;;11.30;57.62;103631.13;5073117;28;20189;-60
2022/01/12 07:57:34;;;;;;;28.33;18.27;;;8.00;78.60;;;11.33;57.22;103628.28;5072967;28;20260;-60
2022/01/12 08:00:04;;;;;;;29.13;17.80;;;8.00;77.90;;;11.34;57.42;103625.50;5072691;28;20689;-60
2022/01/12 08:02:32;;;;;;;25.13;15.13;;;8.00;77.80;;;11.33;57.04;103629.13;5071482;28;20228;-59
2022/01/12 08:04:59;;;;;;;24.07;17.77;;;8.00;77.60;;;11.33;56.80;103636.19;5072470;28;20691;-58
2022/01/12 08:07:28;;;;;;;27.53;18.23;;;8.00;77.30;;;11.33;57.14;103637.03;5072147;28;20557;-59
2022/01/12 08:09:55;;;;;;;25.70;17.57;;;8.10;77.90;;;11.35;57.08;103639.53;5072114;28;20215;-57
2022/01/12 08:12:23;;;;;;;25.27;17.83;;;8.00;77.80;;;11.37;57.68;103642.91;5071693;28;20568;-60
2022/01/12 08:14:50;;;;;;;28.90;17.20;;;8.10;77.90;;;11.41;57.69;103633.84;5072260;28;20232;-60
2022/01/12 08:17:17;;;;;;;25.10;18.03;;;8.10;77.80;;;11.43;56.98;103631.94;5071700;28;20259;-57
2022/01/12 08:19:44;;;;;;;28.90;19.07;;;8.10;77.60;;;11.45;56.86;103635.31;5073109;28;20344;-59
2022/01/12 08:22:13;;;;;;;24.47;16.27;;;8.10;77.30;;;11.46;56.99;103642.25;5072794;28;20255;-61
2022/01/12 08:24:41;;;;;;;26.00;16.27;;;8.10;77.30;;;11.47;56.73;103646.59;5070600;28;20682;-60
2022/01/12 08:27:09;;;;;;;30.03;18.80;;;8.10;77.10;;;11.50;57.14;103656.94;5072735;28;20548;-60
2022/01/12 08:29:37;;;;;;;29.27;17.17;;;8.10;77.30;;;11.49;56.48;103652.59;5072275;28;20664;-58
2022/01/12 08:32:05;;;;;;;29.00;18.27;;;8.20;77.30;;;11.51;57.25;103661.25;5072444;28;20189;-58
2022/01/12 08:34:33;;;;;;;28.13;17.60;;;8.20;77.50;;;11.53;57.08;103669.88;5072484;28;20684;-55
2022/01/12 08:37:00;;;;;;;25.33;16.83;;;8.20;77.30;;;11.55;56.73;103662.75;5072268;28;20289;-60
2022/01/12 08:39:27;;;;;;;24.33;15.87;;;8.20;78.20;;;11.58;56.29;103667.78;5071933;28;20193;-59
2022/01/12 08:41:56;;;;;;;29.60;18.83;;;8.20;77.10;;;11.58;56.39;103668.63;5072252;28;20608;-56
2022/01/12 08:44:33;;;;;;;25.97;16.40;;;8.20;77.10;;;11.59;56.78;103674.75;5072685;28;20557;-60
2022/01/12 08:47:02;;;;;;;24.40;16.10;;;8.20;76.90;;;11.61;56.46;103675.47;5072577;28;20197;-59
2022/01/12 08:49:30;;;;;;;25.70;16.03;;;8.20;76.90;;;11.63;56.72;103673.56;5072457;28;20197;-58
2022/01/12 08:51:57;;;;;;;26.93;18.03;;;8.30;77.30;;;11.67;56.37;103682.94;5072873;28;20266;-59
2022/01/12 08:54:25;;;;;;;25.03;16.00;;;8.30;76.80;;;11.67;56.81;103688.22;5071219;28;20205;-57
2022/01/12 08:56:52;;;;;;;28.40;17.67;;;8.30;76.80;;;11.65;56.19;103684.84;5072405;28;20228;-59
2022/01/12 08:59:22;;;;;;;26.53;16.47;;;8.30;76.50;;;11.64;55.98;103698.16;5073470;28;20283;-59
2022/01/12 09:01:50;;;;;;;26.20;17.90;;;8.30;76.40;;;11.61;56.11;103693.94;5074922;28;20276;-59
2022/01/12 09:04:18;;;;;;;26.67;17.37;;;8.30;76.40;;;11.56;56.43;103701.34;5072386;28;20616;-61
2022/01/12 09:06:50;;;;;;;24.10;15.57;;;8.30;76.40;;;11.55;56.36;103699.66;5072196;28;20200;-61
2022/01/12 09:09:18;;;;;;;23.77;16.30;;;8.20;76.40;;;11.54;56.26;103703.25;5072413;28;20185;-58
2022/01/12 09:11:46;;;;;;;24.57;16.47;;;8.20;76.40;;;11.51;56.50;103698.16;5072320;28;20189;-60
2022/01/12 09:14:13;;;;;;;24.93;16.07;;;8.20;76.60;;;11.51;56.44;103698.16;5075798;28;20642;-60
2022/01/12 09:16:42;;;;;;;23.33;16.57;;;8.20;76.90;;;11.52;56.78;103694.59;5075893;28;20669;-58
2022/01/12 09:19:10;;;;;;;30.70;19.90;;;8.20;76.90;;;11.54;56.31;103703.25;5076678;28;20197;-59
2022/01/12 09:21:37;;;;;;;25.67;17.83;;;8.20;77.20;;;11.57;56.33;103692.47;5075532;28;20273;-59
2022/01/12 09:24:05;;;;;;;28.67;19.07;;;8.20;77.00;;;11.60;56.28;103692.25;5075702;28;20217;-55
2022/01/12 09:26:33;;;;;;;26.20;17.63;;;8.20;77.00;;;11.64;56.73;103700.81;5076321;28;20192;-59
2022/01/12 09:29:02;;;;;;;29.57;19.00;;;8.20;77.20;;;11.68;56.27;103702.28;5075019;28;20211;-59
2022/01/12 09:31:29;;;;;;;24.80;15.80;;;8.30;77.20;;;11.71;56.21;103705.56;5076388;28;20248;-59
2022/01/12 09:33:58;;;;;;;30.57;17.23;;;8.30;77.50;;;11.72;56.50;103699.31;5075904;28;20607;-58
2022/01/12 09:36:25;;;;;;;30.30;19.37;;;8.30;77.30;;;11.77;56.09;103699.84;5075898;28;20197;-60
2022/01/12 09:38:54;;;;;;;26.50;17.93;;;8.40;77.00;;;11.80;56.40;103704.06;5075255;28;20562;-62
2022/01/12 09:41:24;;;;;;;26.53;16.40;;;8.40;76.90;;;11.83;56.28;103704.69;5075517;28;20247;-56
2022/01/12 09:43:52;;;;;;;29.57;18.60;;;8.40;77.00;;;11.83;55.85;103703.84;5074922;28;20223;-59
2022/01/12 09:46:23;;;;;;;33.10;17.93;;;8.50;76.90;;;11.83;56.07;103699.44;5075029;28;20652;-60
2022/01/12 09:48:50;;;;;;;30.30;19.20;;;8.50;77.00;;;11.87;56.10;103705.31;5075822;28;20228;-54
2022/01/12 09:51:21;;;;;;;29.73;19.17;;;8.50;76.50;;;11.91;56.10;103702.34;5075261;28;20260;-60
2022/01/12 09:53:52;;;;;;;26.77;16.27;;;8.50;76.90;;;11.95;56.24;103709.09;5075212;28;20280;-57
2022/01/12 09:56:23;;;;;;;28.33;18.90;;;8.60;76.90;;;12.00;56.16;103716.69;5075908;28;20193;-59
2022/01/12 09:58:54;;;;;;;31.27;20.03;;;8.60;76.80;;;12.01;55.71;103719.22;5075239;28;20649;-59
2022/01/12 10:01:28;;;;;;;36.50;21.73;;;8.60;76.60;;;12.02;56.17;103731.47;5074645;28;20201;-59
2022/01/12 10:04:09;;;;;;;32.10;19.97;;;8.60;76.60;;;12.05;55.98;103741.78;5074875;28;20297;-60
2022/01/12 10:06:40;;;;;;;27.63;19.23;;;8.60;76.50;;;12.07;55.58;103750.47;5075801;28;20203;-60
2022/01/12 10:09:08;;;;;;;28.93;18.57;;;8.60;76.70;;;12.09;55.52;103747.72;5075699;28;20190;-58
2022/01/12 10:11:48;;;;;;;25.20;16.03;;;8.70;76.70;;;12.11;56.06;103744.00;5075950;28;20272;-59
2022/01/12 10:14:16;;;;;;;26.53;16.73;;;8.70;76.80;;;12.15;55.93;103745.47;5075388;28;20619;-59
2022/01/12 10:16:52;;;;;;;23.93;17.20;;;8.70;76.90;;;12.18;55.61;103741.75;5075421;28;20192;-57
2022/01/12 10:19:28;;;;;;;29.97;18.20;;;8.70;76.50;;;12.21;55.64;103739.75;5075290;28;20184;-60
2022/01/12 10:21:59;;;;;;;30.50;18.03;;;8.70;76.30;;;12.25;55.91;103737.72;5075637;28;20648;-60
2022/01/12 10:24:28;;;;;;;29.70;17.33;;;8.80;76.20;;;12.29;55.50;103739.16;5073143;28;20643;-57
2022/01/12 10:26:57;;;;;;;28.90;17.00;;;8.80;76.10;;;12.32;55.48;103740.75;5074892;28;20588;-56
2022/01/12 10:29:27;;;;;;;25.70;16.67;;;8.80;76.20;;;12.31;55.23;103736.44;5074732;28;20273;-59
2022/01/12 10:31:58;;;;;;;27.33;16.37;;;8.90;76.10;;;12.34;55.21;103738.88;5074696;28;20634;-59
2022/01/12 10:34:29;;;;;;;27.00;16.10;;;8.90;76.00;;;12.35;55.06;103743.19;5073995;28;20365;-56
2022/01/12 10:36:58;;;;;;;26.13;15.63;;;8.90;75.80;;;12.40;55.15;103746.31;5075241;28;20325;-59
2022/01/12 10:39:29;;;;;;;26.70;17.33;;;8.90;76.00;;;12.49;54.99;103753.56;5074729;28;20700;-58
2022/01/12 10:42:01;;;;;;;25.83;16.50;;;8.90;75.70;;;12.50;55.00;103748.19;5074600;28;20697;-59
2022/01/12 10:44:35;;;;;;;28.67;17.97;;;9.00;75.80;;;12.50;55.20;103753.47;5073123;28;20213;-59
2022/01/12 10:47:09;;;;;;;26.20;16.37;;;9.00;75.50;;;12.54;55.08;103756.72;5074143;28;20193;-58
2022/01/12 10:49:39;;;;;;;24.87;14.73;;;9.00;75.60;;;12.56;54.52;103758.28;5074359;28;20192;-58
2022/01/12 10:52:11;;;;;;;26.53;15.77;;;9.10;75.60;;;12.58;54.60;103776.66;5074018;28;20201;-59
2022/01/12 10:54:50;;;;;;;24.33;15.70;;;9.10;75.60;;;12.58;54.96;103768.75;5074427;28;20301;-58
2022/01/12 10:57:23;;;;;;;23.80;15.80;;;9.10;75.40;;;12.67;55.00;103760.16;5074029;28;20709;-60
2022/01/12 11:00:19;;;;;;;22.73;15.20;;;9.20;75.50;;;12.79;55.06;103751.28;5073971;28;20195;-60
2022/01/12 11:02:49;;;;;;;23.87;16.43;;;9.30;76.10;;;13.00;54.88;103747.06;5073116;28;20212;-59
2022/01/12 11:05:21;;;;;;;22.00;15.17;;;9.40;76.10;;;13.12;54.50;103738.22;5073378;28;20257;-62
2022/01/12 11:07:52;;;;;;;24.47;15.30;;;9.50;75.20;;;13.18;54.62;103737.75;5073813;28;20236;-57
2022/01/12 11:10:21;;;;;;;22.20;14.13;;;9.60;74.70;;;13.19;53.90;103736.78;5088606;28;20577;-59
2022/01/12 11:12:50;;;;;;;30.33;19.77;;;9.60;74.40;;;13.20;54.01;103738.47;5073009;28;20277;-57
2022/01/12 11:15:21;;;;;;;21.37;14.57;;;9.70;74.50;;;13.20;53.85;103732.34;5073348;28;20680;-58
2022/01/12 11:17:51;;;;;;;22.53;13.97;;;9.80;74.00;;;13.18;53.91;103723.69;5073152;28;20189;-62
2022/01/12 11:20:24;;;;;;;21.47;14.70;;;9.80;73.80;;;13.18;54.00;103723.69;5072873;28;20721;-57
2022/01/12 11:23:03;;;;;;;20.00;13.03;;;9.80;73.50;;;13.20;53.84;103727.03;5072640;28;20251;-60
2022/01/12 11:25:32;;;;;;;23.10;14.40;;;9.90;73.80;;;13.26;53.87;103719.50;5053557;28;20271;-59
2022/01/12 11:28:11;;;;;;;27.30;14.93;;;9.90;73.50;;;13.40;53.83;103729.00;5053966;28;20200;-60
2022/01/12 11:30:41;;;;;;;25.30;15.03;;;10.00;73.40;;;13.63;53.42;103729.84;5053160;28;20178;-60
2022/01/12 11:33:12;;;;;;;27.23;15.53;;;10.10;73.40;;;13.81;53.16;103736.34;5062057;28;20734;-55
2022/01/12 11:35:44;;;;;;;20.47;13.53;;;10.20;72.30;;;13.95;52.77;103741.38;5072335;28;20555;-58
2022/01/12 11:38:28;;;;;;;20.00;13.43;;;10.40;71.70;;;14.08;52.80;103734.13;5073443;28;20287;-57
2022/01/12 11:41:08;;;;;;;21.37;13.93;;;10.50;71.30;;;14.21;52.35;103742.78;5072599;28;20984;-56
2022/01/12 11:43:43;;;;;;;24.17;14.43;;;10.60;70.90;;;14.30;51.87;103750.03;5072672;28;20212;-58
2022/01/12 11:46:13;;;;;;;21.00;14.57;;;10.70;70.30;;;14.34;51.65;103748.78;5072977;28;20517;-58
2022/01/12 11:48:49;;;;;;;24.97;16.30;;;10.70;70.20;;;14.32;51.47;103740.13;5073003;28;20215;-55